createdAt,value
2023-03-25T00:01:19.224Z,55.41
2023-03-25T00:02:41.256Z,55.39
2023-03-25T00:04:04.424Z,55.52
2023-03-25T00:05:28.496Z,55.51
2023-03-25T00:06:50.922Z,55.56
2023-03-25T00:08:15.829Z,55.53
2023-03-25T00:09:38.038Z,55.66
2023-03-25T00:11:04.266Z,55.56
2023-03-25T00:12:40.314Z,55.71
2023-03-25T00:14:04.718Z,55.67
2023-03-25T00:15:27.170Z,55.65
2023-03-25T00:16:53.225Z,55.70
2023-03-25T00:18:17.664Z,55.60
2023-03-25T00:19:46.780Z,55.77
2023-03-25T00:21:11.897Z,55.70
2023-03-25T00:22:40.823Z,55.67
2023-03-25T00:24:04.498Z,55.77
2023-03-25T00:25:25.552Z,55.61
2023-03-25T00:26:49.080Z,55.75
2023-03-25T00:28:11.397Z,55.52
2023-03-25T00:29:32.600Z,55.62
2023-03-25T00:30:55.234Z,55.88
2023-03-25T00:32:21.224Z,55.67
2023-03-25T00:33:43.787Z,55.84
2023-03-25T00:35:08.738Z,55.81
2023-03-25T00:36:32.573Z,55.87
2023-03-25T00:37:57.968Z,55.78
2023-03-25T00:39:21.436Z,55.82
2023-03-25T00:40:43.246Z,55.84
2023-03-25T00:42:26.367Z,55.80
2023-03-25T00:43:51.682Z,55.78
2023-03-25T00:45:19.017Z,55.62
2023-03-25T00:46:46.701Z,55.76
2023-03-25T00:48:11.530Z,55.66
2023-03-25T00:49:44.932Z,55.75
2023-03-25T00:51:52.502Z,55.82
2023-03-25T00:53:17.224Z,55.88
2023-03-25T00:54:42.816Z,55.77
2023-03-25T00:56:14.698Z,56.01
2023-03-25T00:57:39.262Z,55.89
2023-03-25T00:59:00.507Z,56.00
2023-03-25T01:00:22.952Z,55.93
2023-03-25T01:01:46.334Z,55.91
2023-03-25T01:03:09.882Z,56.05
2023-03-25T01:04:32.176Z,55.83
2023-03-25T01:05:55.335Z,55.89
2023-03-25T01:07:17.892Z,56.06
2023-03-25T01:08:41.827Z,55.84
2023-03-25T01:10:31.595Z,55.89
2023-03-25T01:11:54.962Z,55.86
2023-03-25T01:13:23.739Z,56.02
2023-03-25T01:14:46.486Z,56.00
2023-03-25T01:16:09.984Z,56.01
2023-03-25T01:17:34.783Z,56.22
2023-03-25T01:19:01.965Z,56.33
2023-03-25T01:20:23.301Z,56.12
2023-03-25T01:21:46.065Z,56.13
2023-03-25T01:23:16.255Z,56.27
2023-03-25T01:24:48.366Z,56.31
2023-03-25T01:26:09.579Z,56.21
2023-03-25T01:27:36.498Z,56.29
2023-03-25T01:29:05.212Z,56.22
2023-03-25T01:30:27.728Z,56.29
2023-03-25T01:31:50.931Z,56.19
2023-03-25T01:33:13.306Z,56.14
2023-03-25T01:34:41.542Z,55.91
2023-03-25T01:36:04.482Z,56.13
2023-03-25T01:37:27.487Z,56.15
2023-03-25T01:38:50.735Z,56.18
2023-03-25T01:40:20.122Z,56.04
2023-03-25T01:41:48.979Z,56.03
2023-03-25T01:43:15.469Z,56.07
2023-03-25T01:45:17.909Z,56.24
2023-03-25T01:46:45.147Z,56.05
2023-03-25T01:48:11.610Z,56.21
2023-03-25T01:49:39.442Z,56.13
2023-03-25T01:51:06.517Z,56.20
2023-03-25T01:52:29.951Z,56.35
2023-03-25T01:53:54.584Z,56.29
2023-03-25T01:55:21.588Z,56.26
2023-03-25T01:56:49.189Z,56.00
2023-03-25T01:58:15.416Z,56.28
2023-03-25T01:59:40.266Z,56.30
2023-03-25T02:01:03.482Z,56.36
2023-03-25T02:02:36.857Z,56.14
2023-03-25T02:04:03.568Z,56.27
2023-03-25T02:05:31.086Z,56.02
2023-03-25T02:06:55.015Z,56.41
2023-03-25T02:08:17.573Z,56.20
2023-03-25T02:09:39.905Z,56.38
2023-03-25T02:11:04.010Z,56.24
2023-03-25T02:12:25.435Z,56.27
2023-03-25T02:13:47.838Z,56.37
2023-03-25T02:15:10.921Z,56.46
2023-03-25T02:16:42.672Z,56.41
2023-03-25T02:18:22.458Z,56.38
2023-03-25T02:20:33.401Z,56.29
2023-03-25T02:22:28.500Z,56.46
2023-03-25T02:24:25.928Z,56.61
2023-03-25T02:26:19.143Z,56.52
2023-03-25T02:28:03.397Z,56.84
2023-03-25T02:29:38.029Z,56.44
2023-03-25T02:31:22.764Z,56.75
2023-03-25T02:33:17.745Z,56.72
2023-03-25T02:37:18.441Z,56.84
2023-03-25T02:38:48.002Z,56.75
2023-03-25T02:40:16.259Z,56.99
2023-03-25T02:41:58.536Z,56.84
2023-03-25T02:43:24.187Z,56.64
2023-03-25T02:45:25.306Z,56.79
2023-03-25T02:46:57.449Z,56.94
2023-03-25T02:48:21.809Z,56.65
2023-03-25T02:49:54.190Z,56.72
2023-03-25T02:51:24.537Z,56.51
2023-03-25T02:52:50.083Z,56.50
2023-03-25T02:54:17.225Z,56.67
2023-03-25T02:55:43.421Z,56.45
2023-03-25T02:57:08.393Z,56.62
2023-03-25T02:58:31.079Z,56.60
2023-03-25T02:59:56.496Z,56.55
2023-03-25T03:01:25.509Z,56.57
2023-03-25T03:02:59.959Z,56.74
2023-03-25T03:04:23.670Z,56.73
2023-03-25T03:05:49.766Z,57.00
2023-03-25T03:07:24.602Z,56.55
2023-03-25T03:09:01.558Z,56.81
2023-03-25T03:10:31.787Z,56.88
2023-03-25T03:12:06.043Z,56.76
2023-03-25T03:13:56.490Z,56.83
2023-03-25T03:15:29.930Z,56.95
2023-03-25T03:17:03.748Z,56.92
2023-03-25T03:18:34.442Z,56.85
2023-03-25T03:20:00.842Z,56.96
2023-03-25T03:21:30.248Z,56.67
2023-03-25T03:23:02.251Z,56.86
2023-03-25T03:24:32.214Z,56.85
2023-03-25T03:26:00.385Z,56.91
2023-03-25T03:27:33.965Z,56.82
2023-03-25T03:29:06.574Z,57.19
2023-03-25T03:30:32.896Z,56.85
2023-03-25T03:32:06.998Z,57.02
2023-03-25T03:33:34.560Z,56.89
2023-03-25T03:35:02.053Z,56.73
2023-03-25T03:36:30.244Z,57.01
2023-03-25T03:37:58.934Z,56.80
2023-03-25T03:39:25.089Z,56.79
2023-03-25T03:40:51.743Z,56.86
2023-03-25T03:42:21.593Z,56.93
2023-03-25T03:43:50.332Z,56.63
2023-03-25T03:45:18.984Z,57.15
2023-03-25T03:46:47.203Z,57.03
2023-03-25T03:48:14.111Z,56.88
2023-03-25T03:49:38.885Z,57.10
2023-03-25T03:51:08.029Z,56.96
2023-03-25T03:52:34.827Z,56.95
2023-03-25T03:54:00.736Z,56.98
2023-03-25T03:55:30.013Z,56.95
2023-03-25T03:56:57.362Z,57.01
2023-03-25T03:58:26.193Z,57.13
2023-03-25T03:59:54.982Z,57.32
2023-03-25T04:01:28.179Z,57.18
2023-03-25T04:02:51.659Z,57.35
2023-03-25T04:04:18.255Z,57.34
2023-03-25T04:05:41.065Z,57.19
2023-03-25T04:07:07.184Z,57.53
2023-03-25T04:08:35.814Z,57.45
2023-03-25T04:10:04.339Z,57.47
2023-03-25T04:11:31.794Z,57.55
2023-03-25T04:12:56.972Z,57.71
2023-03-25T04:14:20.047Z,57.55
2023-03-25T04:15:42.788Z,57.48
2023-03-25T04:17:06.081Z,57.38
2023-03-25T04:18:28.785Z,57.62
2023-03-25T04:19:53.636Z,57.45
2023-03-25T04:21:17.815Z,57.62
2023-03-25T04:22:38.931Z,57.43
2023-03-25T04:24:01.832Z,57.63
2023-03-25T04:25:25.372Z,57.53
2023-03-25T04:26:50.007Z,57.36
2023-03-25T04:28:13.858Z,57.72
2023-03-25T04:29:37.274Z,57.53
2023-03-25T04:31:00.647Z,57.49
2023-03-25T04:32:22.812Z,57.67
2023-03-25T04:33:46.910Z,57.31
2023-03-25T04:35:09.704Z,57.59
2023-03-25T04:36:33.838Z,57.62
2023-03-25T04:37:57.628Z,57.45
2023-03-25T04:39:22.776Z,57.59
2023-03-25T04:40:46.901Z,57.73
2023-03-25T04:42:09.090Z,57.69
2023-03-25T04:43:30.351Z,57.79
2023-03-25T04:44:54.446Z,57.93
2023-03-25T04:46:18.346Z,57.83
2023-03-25T04:47:45.157Z,57.82
2023-03-25T04:49:14.212Z,57.77
2023-03-25T04:50:35.275Z,57.67
2023-03-25T04:51:58.216Z,57.84
2023-03-25T04:53:19.837Z,57.97
2023-03-25T04:54:42.278Z,57.99
2023-03-25T04:56:05.219Z,58.19
2023-03-25T04:57:27.444Z,58.00
2023-03-25T04:58:48.772Z,58.11
2023-03-25T05:00:15.168Z,58.26
2023-03-25T05:01:42.309Z,58.27
2023-03-25T05:03:05.003Z,58.36
2023-03-25T05:04:27.106Z,58.22
2023-03-25T05:05:48.580Z,58.14
2023-03-25T05:07:11.065Z,58.17
2023-03-25T05:08:32.016Z,58.23
2023-03-25T05:09:54.365Z,58.12
2023-03-25T05:11:14.980Z,57.92
2023-03-25T05:12:37.038Z,57.89
2023-03-25T05:13:58.814Z,57.94
2023-03-25T05:15:21.382Z,57.84
2023-03-25T05:16:44.148Z,58.03
2023-03-25T05:18:06.933Z,58.06
2023-03-25T05:19:28.902Z,57.90
2023-03-25T05:20:51.565Z,57.86
2023-03-25T05:22:13.325Z,57.93
2023-03-25T05:23:35.381Z,57.76
2023-03-25T05:24:56.534Z,57.89
2023-03-25T05:26:18.394Z,57.74
2023-03-25T05:27:39.987Z,57.65
2023-03-25T05:29:03.265Z,57.78
2023-03-25T05:30:32.707Z,57.85
2023-03-25T05:31:55.667Z,57.85
2023-03-25T05:33:19.090Z,57.97
2023-03-25T05:34:41.053Z,58.01
2023-03-25T05:36:02.420Z,57.90
2023-03-25T05:37:24.358Z,57.87
2023-03-25T05:38:46.429Z,57.90
2023-03-25T05:40:14.975Z,58.07
2023-03-25T05:41:40.052Z,57.84
2023-03-25T05:43:05.698Z,57.76
2023-03-25T05:44:27.735Z,57.82
2023-03-25T05:45:50.956Z,57.88
2023-03-25T05:47:13.453Z,57.57
2023-03-25T05:48:35.858Z,57.63
2023-03-25T05:49:58.736Z,57.84
2023-03-25T05:51:22.119Z,57.71
2023-03-25T05:52:45.710Z,57.67
2023-03-25T05:54:12.031Z,57.62
2023-03-25T05:55:34.518Z,57.61
2023-03-25T05:57:01.301Z,57.36
2023-03-25T05:58:22.462Z,57.47
2023-03-25T05:59:44.686Z,57.41
2023-03-25T06:01:14.593Z,57.07
2023-03-25T06:02:49.031Z,57.16
2023-03-25T06:04:13.092Z,56.97
2023-03-25T06:05:41.518Z,56.98
2023-03-25T06:07:03.950Z,56.92
2023-03-25T06:08:27.160Z,56.76
2023-03-25T06:09:54.471Z,56.50
2023-03-25T06:11:15.999Z,56.54
2023-03-25T06:12:39.278Z,56.18
2023-03-25T06:14:02.940Z,56.15
2023-03-25T06:15:29.557Z,55.71
2023-03-25T06:16:56.786Z,55.39
2023-03-25T06:18:22.700Z,55.17
2023-03-25T06:19:44.255Z,55.02
2023-03-25T06:21:07.169Z,54.42
2023-03-25T06:22:28.321Z,53.79
2023-03-25T06:23:51.098Z,53.47
2023-03-25T06:25:17.782Z,52.90
2023-03-25T06:26:39.964Z,52.32
2023-03-25T06:28:03.815Z,51.68
2023-03-25T06:29:26.514Z,51.24
2023-03-25T06:30:49.492Z,50.94
2023-03-25T06:32:14.944Z,50.39
2023-03-25T06:33:42.910Z,50.09
2023-03-25T06:35:07.328Z,49.84
2023-03-25T06:36:29.748Z,49.73
2023-03-25T06:37:51.969Z,49.48
2023-03-25T06:39:25.900Z,49.69
2023-03-25T06:40:50.903Z,49.34
2023-03-25T06:42:13.217Z,48.84
2023-03-25T06:43:56.726Z,48.75
2023-03-25T06:45:54.941Z,48.67
2023-03-25T06:47:32.675Z,48.76
2023-03-25T06:48:53.860Z,48.86
2023-03-25T06:50:16.262Z,49.02
2023-03-25T06:51:38.155Z,49.21
2023-03-25T06:53:01.026Z,49.42
2023-03-25T06:54:23.907Z,49.50
2023-03-25T06:55:45.134Z,49.31
2023-03-25T06:57:08.322Z,49.62
2023-03-25T06:58:35.315Z,49.63
2023-03-25T06:59:57.871Z,49.75
2023-03-25T07:01:19.914Z,49.96
2023-03-25T07:02:43.776Z,49.75
2023-03-25T07:04:06.168Z,50.19
2023-03-25T07:05:27.395Z,50.53
2023-03-25T07:06:49.716Z,50.73
2023-03-25T07:08:11.782Z,51.02
2023-03-25T07:09:33.911Z,51.24
2023-03-25T07:11:02.379Z,51.79
2023-03-25T07:12:25.026Z,51.62
2023-03-25T07:13:46.195Z,52.18
2023-03-25T07:15:09.843Z,52.28
2023-03-25T07:16:35.568Z,52.32
2023-03-25T07:18:02.124Z,52.50
2023-03-25T07:19:24.183Z,52.61
2023-03-25T07:20:46.021Z,52.49
2023-03-25T07:22:08.428Z,52.75
2023-03-25T07:23:29.859Z,52.65
2023-03-25T07:24:52.609Z,52.87
2023-03-25T07:26:14.743Z,52.94
2023-03-25T07:27:37.005Z,52.94
2023-03-25T07:29:04.766Z,53.34
2023-03-25T07:30:27.025Z,53.43
2023-03-25T07:31:49.338Z,53.30
2023-03-25T07:33:12.036Z,53.44
2023-03-25T07:34:34.047Z,53.66
2023-03-25T07:35:55.421Z,53.58
2023-03-25T07:37:17.728Z,53.86
2023-03-25T07:38:40.326Z,53.88
2023-03-25T07:40:02.661Z,53.93
2023-03-25T07:41:23.838Z,53.71
2023-03-25T07:43:06.835Z,53.86
2023-03-25T07:44:36.285Z,53.51
2023-03-25T07:45:58.848Z,53.50
2023-03-25T07:47:24.966Z,53.68
2023-03-25T07:48:48.761Z,53.46
2023-03-25T07:50:10.529Z,53.28
2023-03-25T07:51:33.361Z,53.24
2023-03-25T07:52:56.050Z,53.04
2023-03-25T07:54:18.286Z,52.84
2023-03-25T07:55:41.336Z,52.63
2023-03-25T07:57:02.777Z,52.25
2023-03-25T07:58:25.210Z,52.25
2023-03-25T07:59:47.727Z,51.94
2023-03-25T08:01:09.902Z,51.24
2023-03-25T08:02:30.975Z,50.50
2023-03-25T08:03:55.020Z,49.90
2023-03-25T08:05:21.383Z,49.36
2023-03-25T08:06:42.827Z,49.32
2023-03-25T08:08:06.941Z,49.00
2023-03-25T08:09:29.933Z,48.79
2023-03-25T08:10:51.805Z,48.72
2023-03-25T08:12:13.881Z,48.51
2023-03-25T08:13:36.119Z,48.31
2023-03-25T08:14:58.246Z,48.16
2023-03-25T08:16:19.331Z,47.68
2023-03-25T08:17:42.026Z,47.65
2023-03-25T08:19:04.882Z,47.00
2023-03-25T08:20:29.977Z,45.75
2023-03-25T08:21:52.524Z,43.81
2023-03-25T08:23:19.955Z,43.26
2023-03-25T08:24:42.122Z,42.69
2023-03-25T08:26:05.637Z,42.02
2023-03-25T08:27:27.636Z,41.74
2023-03-25T08:28:49.596Z,41.30
2023-03-25T08:30:13.350Z,41.26
2023-03-25T08:31:38.945Z,41.05
2023-03-25T08:33:07.452Z,41.30
2023-03-25T08:34:39.785Z,40.96
2023-03-25T08:36:03.401Z,41.05
2023-03-25T08:37:26.100Z,40.90
2023-03-25T08:38:48.235Z,40.78
2023-03-25T08:40:10.979Z,40.78
2023-03-25T08:41:32.166Z,40.82
2023-03-25T08:42:54.271Z,40.97
2023-03-25T08:44:16.609Z,40.89
2023-03-25T08:45:38.569Z,40.89
2023-03-25T08:47:01.623Z,40.94
2023-03-25T08:48:24.934Z,41.29
2023-03-25T08:49:49.553Z,41.81
2023-03-25T08:51:11.784Z,41.97
2023-03-25T08:52:36.918Z,41.94
2023-03-25T08:53:59.161Z,42.14
2023-03-25T08:55:26.180Z,41.97
2023-03-25T08:56:48.625Z,42.17
2023-03-25T08:58:10.880Z,42.34
2023-03-25T08:59:31.992Z,42.54
2023-03-25T09:00:56.334Z,42.90
2023-03-25T09:02:18.914Z,42.95
2023-03-25T09:03:41.155Z,43.20
2023-03-25T09:05:04.626Z,43.43
2023-03-25T09:06:27.130Z,43.76
2023-03-25T09:07:49.381Z,43.78
2023-03-25T09:09:12.430Z,43.79
2023-03-25T09:10:36.684Z,43.76
2023-03-25T09:12:00.867Z,43.88
2023-03-25T09:13:22.885Z,43.75
2023-03-25T09:14:50.069Z,43.75
2023-03-25T09:16:12.167Z,43.84
2023-03-25T09:17:34.264Z,44.05
2023-03-25T09:18:56.684Z,44.38
2023-03-25T09:20:23.363Z,44.16
2023-03-25T09:21:45.632Z,44.63
2023-03-25T09:23:09.792Z,44.93
2023-03-25T09:24:34.274Z,45.01
2023-03-25T09:26:01.164Z,45.17
2023-03-25T09:27:23.342Z,44.75
2023-03-25T09:28:46.145Z,44.21
2023-03-25T09:30:09.912Z,43.81
2023-03-25T09:31:33.594Z,43.20
2023-03-25T09:32:55.965Z,43.00
2023-03-25T09:34:18.656Z,42.90
2023-03-25T09:35:43.158Z,42.39
2023-03-25T09:37:05.833Z,42.23
2023-03-25T09:38:27.985Z,41.57
2023-03-25T09:39:50.650Z,41.28
2023-03-25T09:41:42.375Z,40.75
2023-03-25T09:43:15.844Z,40.85
2023-03-25T09:44:53.585Z,40.40
2023-03-25T09:46:16.301Z,40.04
2023-03-25T09:47:44.011Z,39.55
2023-03-25T09:49:13.442Z,39.61
2023-03-25T09:50:37.412Z,39.82
2023-03-25T09:52:04.327Z,39.86
2023-03-25T09:53:32.805Z,39.98
2023-03-25T09:55:00.557Z,40.22
2023-03-25T09:56:25.970Z,40.04
2023-03-25T09:57:51.815Z,39.79
2023-03-25T09:59:18.944Z,39.75
2023-03-25T10:00:48.426Z,39.74
2023-03-25T10:02:33.711Z,39.82
2023-03-25T10:04:34.493Z,39.98
2023-03-25T10:06:12.585Z,39.80
2023-03-25T10:07:54.798Z,39.37
2023-03-25T10:09:42.788Z,39.18
2023-03-25T10:11:09.604Z,38.81
2023-03-25T10:12:43.787Z,38.36
2023-03-25T10:14:15.551Z,38.04
2023-03-25T10:15:52.123Z,38.24
2023-03-25T10:17:27.491Z,38.27
2023-03-25T10:18:59.844Z,38.50
2023-03-25T10:20:35.480Z,38.35
2023-03-25T10:22:04.462Z,38.39
2023-03-25T10:23:34.773Z,38.41
2023-03-25T10:25:02.226Z,38.30
2023-03-25T10:26:30.998Z,38.40
2023-03-25T10:27:54.510Z,38.19
2023-03-25T10:29:23.444Z,35.50
2023-03-25T10:30:53.319Z,31.53
2023-03-25T10:32:19.950Z,30.36
2023-03-25T10:33:51.615Z,29.94
2023-03-25T10:35:23.285Z,30.62
2023-03-25T10:36:55.312Z,31.09
2023-03-25T10:38:21.047Z,31.54
2023-03-25T10:39:47.484Z,31.95
2023-03-25T10:41:21.321Z,31.91
2023-03-25T10:43:00.418Z,31.52
2023-03-25T10:44:25.519Z,31.78
2023-03-25T10:45:50.384Z,31.73
2023-03-25T10:47:17.731Z,31.48
2023-03-25T10:48:40.342Z,31.96
2023-03-25T10:50:04.696Z,31.66
2023-03-25T10:51:30.592Z,32.31
2023-03-25T10:52:57.757Z,32.05
2023-03-25T10:54:20.599Z,32.29
2023-03-25T10:55:48.237Z,32.13
2023-03-25T10:57:13.339Z,31.99
2023-03-25T10:58:41.520Z,31.87
2023-03-25T11:00:14.829Z,32.15
2023-03-25T11:01:40.044Z,32.42
2023-03-25T11:03:05.452Z,32.88
2023-03-25T11:04:34.996Z,32.80
2023-03-25T11:06:00.311Z,33.06
2023-03-25T11:07:27.178Z,32.96
2023-03-25T11:09:13.768Z,33.60
2023-03-25T11:10:35.920Z,33.62
2023-03-25T11:12:01.631Z,34.16
2023-03-25T11:13:25.979Z,34.46
2023-03-25T11:14:56.779Z,34.85
2023-03-25T11:16:19.454Z,35.11
2023-03-25T11:17:42.075Z,35.53
2023-03-25T11:19:05.137Z,35.36
2023-03-25T11:20:31.904Z,35.78
2023-03-25T11:21:57.255Z,35.65
2023-03-25T11:23:27.325Z,35.83
2023-03-25T11:24:54.767Z,35.56
2023-03-25T11:26:22.281Z,35.44
2023-03-25T11:27:51.341Z,35.29
2023-03-25T11:29:16.120Z,35.26
2023-03-25T11:30:39.143Z,34.91
2023-03-25T11:32:08.830Z,34.75
2023-03-25T11:33:29.972Z,34.73
2023-03-25T11:34:54.704Z,34.36
2023-03-25T11:36:27.160Z,34.20
2023-03-25T11:37:57.428Z,34.17
2023-03-25T11:39:28.324Z,34.12
2023-03-25T11:40:54.945Z,33.92
2023-03-25T11:42:32.725Z,33.62
2023-03-25T11:43:57.177Z,33.15
2023-03-25T11:45:25.041Z,33.09
2023-03-25T11:46:50.363Z,32.84
2023-03-25T11:48:17.603Z,32.56
2023-03-25T11:49:42.039Z,32.44
2023-03-25T11:51:06.070Z,32.45
2023-03-25T11:52:29.764Z,32.32
2023-03-25T11:54:00.194Z,32.55
2023-03-25T11:55:26.272Z,32.40
2023-03-25T11:56:51.512Z,32.05
2023-03-25T11:58:18.582Z,32.46
2023-03-25T11:59:46.228Z,32.24
2023-03-25T12:01:21.574Z,32.95
2023-03-25T12:02:43.589Z,32.71
2023-03-25T12:06:27.076Z,33.42
2023-03-25T12:08:15.229Z,33.45
2023-03-25T12:09:38.380Z,33.28
2023-03-25T12:11:07.133Z,33.40
2023-03-25T12:12:40.234Z,33.25
2023-03-25T12:14:26.635Z,33.83
2023-03-25T12:15:56.522Z,33.76
2023-03-25T12:17:29.451Z,34.35
2023-03-25T12:19:04.508Z,34.78
2023-03-25T12:20:34.209Z,35.03
2023-03-25T12:22:08.660Z,35.29
2023-03-25T12:23:44.923Z,36.04
2023-03-25T12:25:27.676Z,36.33
2023-03-25T12:26:57.925Z,36.93
2023-03-25T12:28:35.674Z,37.80
2023-03-25T12:30:06.296Z,38.25
2023-03-25T12:31:40.958Z,38.68
2023-03-25T12:33:14.036Z,38.93
2023-03-25T12:34:47.491Z,39.83
2023-03-25T12:36:23.955Z,40.25
2023-03-25T12:38:02.018Z,41.08
2023-03-25T12:39:43.137Z,42.10
2023-03-25T12:41:31.757Z,42.68
2023-03-25T12:43:04.657Z,43.41
2023-03-25T12:44:43.927Z,44.00
2023-03-25T12:46:20.498Z,44.29
2023-03-25T12:47:50.708Z,44.61
2023-03-25T12:49:30.901Z,45.24
2023-03-25T12:51:01.935Z,45.54
2023-03-25T12:52:32.288Z,46.02
2023-03-25T12:54:06.559Z,46.75
2023-03-25T12:55:45.507Z,46.88
2023-03-25T12:57:16.828Z,47.12
2023-03-25T12:59:00.074Z,47.14
2023-03-25T13:00:34.411Z,46.78
2023-03-25T13:02:20.138Z,46.55
2023-03-25T13:04:10.090Z,46.51
2023-03-25T13:05:48.385Z,46.47
2023-03-25T13:07:14.468Z,46.41
2023-03-25T13:08:43.880Z,46.70
2023-03-25T13:10:15.015Z,46.51
2023-03-25T13:11:53.313Z,46.21
2023-03-25T13:13:20.737Z,46.32
2023-03-25T13:14:49.969Z,46.21
2023-03-25T13:16:15.397Z,45.71
2023-03-25T13:17:58.584Z,45.41
2023-03-25T13:19:44.493Z,45.10
2023-03-25T13:21:14.149Z,45.05
2023-03-25T13:22:41.072Z,45.09
2023-03-25T13:24:08.266Z,45.09
2023-03-25T13:25:36.897Z,45.02
2023-03-25T13:27:01.102Z,45.25
2023-03-25T13:28:29.095Z,45.36
2023-03-25T13:29:55.095Z,45.60
2023-03-25T13:31:24.237Z,45.31
2023-03-25T13:32:50.606Z,45.04
2023-03-25T13:34:28.056Z,44.92
2023-03-25T13:35:59.281Z,44.59
2023-03-25T13:37:29.486Z,44.74
2023-03-25T13:38:55.575Z,44.71
2023-03-25T13:40:36.862Z,44.88
2023-03-25T13:42:06.404Z,45.14
2023-03-25T13:43:40.144Z,45.39
2023-03-25T13:45:06.267Z,45.36
2023-03-25T13:46:35.062Z,45.47
2023-03-25T13:48:08.001Z,45.50
2023-03-25T13:49:37.251Z,45.83
2023-03-25T13:51:06.555Z,46.09
2023-03-25T13:52:35.053Z,45.99
2023-03-25T13:54:02.871Z,46.19
2023-03-25T13:55:35.365Z,46.50
2023-03-25T13:57:26.675Z,46.49
2023-03-25T13:59:07.240Z,46.25
2023-03-25T14:00:49.093Z,46.24
2023-03-25T14:02:49.292Z,46.09
2023-03-25T14:04:33.366Z,45.95
2023-03-25T14:06:19.612Z,45.91
2023-03-25T14:08:08.639Z,45.70
2023-03-25T14:10:18.995Z,45.58
2023-03-25T14:11:58.386Z,45.29
2023-03-25T14:13:26.814Z,45.39
2023-03-25T14:14:57.175Z,45.13
2023-03-25T14:16:25.882Z,45.00
2023-03-25T14:17:50.539Z,44.87
2023-03-25T14:19:16.974Z,44.80
2023-03-25T14:20:41.708Z,44.71
2023-03-25T14:22:11.747Z,44.66
2023-03-25T14:23:38.418Z,44.76
2023-03-25T14:25:02.301Z,44.77
2023-03-25T14:26:24.831Z,44.90
2023-03-25T14:27:50.713Z,44.91
2023-03-25T14:29:26.450Z,44.88
2023-03-25T14:31:11.152Z,44.77
2023-03-25T14:32:36.076Z,44.69
2023-03-25T14:34:15.074Z,44.75
2023-03-25T14:35:58.062Z,44.81
2023-03-25T14:37:29.570Z,44.79
2023-03-25T14:38:54.607Z,44.84
2023-03-25T14:41:01.494Z,44.93
2023-03-25T14:42:30.743Z,45.15
2023-03-25T14:44:14.700Z,44.83
2023-03-25T14:46:01.647Z,44.95
2023-03-25T14:47:36.651Z,45.16
2023-03-25T14:49:21.263Z,44.98
2023-03-25T14:50:44.054Z,45.24
2023-03-25T14:52:07.573Z,45.33
2023-03-25T14:53:30.060Z,45.34
2023-03-25T14:54:57.061Z,45.35
2023-03-25T14:56:23.417Z,45.27
2023-03-25T14:57:46.527Z,45.04
2023-03-25T14:59:17.815Z,45.25
2023-03-25T15:00:47.314Z,45.15
2023-03-25T15:02:18.093Z,45.18
2023-03-25T15:03:46.225Z,45.09
2023-03-25T15:05:20.293Z,45.12
2023-03-25T15:06:52.121Z,45.21
2023-03-25T15:08:17.962Z,45.48
2023-03-25T15:09:49.049Z,45.56
2023-03-25T15:11:17.207Z,46.27
2023-03-25T15:12:40.335Z,46.29
2023-03-25T15:14:06.995Z,46.84
2023-03-25T15:15:33.957Z,47.07
2023-03-25T15:17:05.177Z,47.22
2023-03-25T15:18:59.919Z,47.21
2023-03-25T15:20:37.538Z,47.65
2023-03-25T15:22:21.109Z,48.11
2023-03-25T15:23:46.493Z,48.05
2023-03-25T15:25:17.181Z,48.97
2023-03-25T15:26:43.375Z,49.29
2023-03-25T15:28:18.901Z,49.37
2023-03-25T15:29:52.416Z,49.28
2023-03-25T15:31:38.492Z,49.75
2023-03-25T15:33:19.338Z,50.29
2023-03-25T15:35:01.051Z,50.58
2023-03-25T15:36:55.519Z,50.81
2023-03-25T15:38:40.239Z,50.98
2023-03-25T15:40:16.733Z,50.93
2023-03-25T15:42:08.408Z,51.35
2023-03-25T15:44:02.165Z,51.00
2023-03-25T15:45:34.429Z,50.94
2023-03-25T15:47:07.443Z,51.10
2023-03-25T15:48:57.121Z,50.90
2023-03-25T15:50:37.434Z,50.69
2023-03-25T15:52:19.734Z,50.71
2023-03-25T15:54:20.576Z,50.78
2023-03-25T15:55:48.170Z,50.89
2023-03-25T15:57:22.824Z,50.87
2023-03-25T15:58:55.331Z,50.96
2023-03-25T16:00:24.356Z,50.98
2023-03-25T16:01:53.128Z,51.32
2023-03-25T16:03:18.614Z,51.39
2023-03-25T16:04:44.384Z,51.57
2023-03-25T16:06:16.705Z,51.67
2023-03-25T16:07:39.094Z,52.00
2023-03-25T16:09:03.289Z,52.00
2023-03-25T16:10:32.547Z,52.01
2023-03-25T16:12:01.293Z,52.16
2023-03-25T16:13:25.235Z,52.31
2023-03-25T16:14:48.798Z,52.41
2023-03-25T16:16:12.881Z,52.85
2023-03-25T16:17:36.338Z,53.07
2023-03-25T16:18:57.568Z,53.17
2023-03-25T16:20:24.663Z,53.54
2023-03-25T16:21:50.745Z,53.57
2023-03-25T16:23:20.719Z,53.74
2023-03-25T16:24:43.429Z,53.66
2023-03-25T16:26:06.808Z,54.00
2023-03-25T16:27:32.645Z,53.95
2023-03-25T16:28:56.610Z,54.20
2023-03-25T16:30:25.201Z,54.33
2023-03-25T16:31:56.683Z,54.46
2023-03-25T16:33:23.174Z,54.77
2023-03-25T16:34:44.472Z,54.82
2023-03-25T16:36:10.663Z,54.90
2023-03-25T16:37:34.283Z,55.13
2023-03-25T16:38:56.867Z,55.26
2023-03-25T16:40:26.725Z,55.38
2023-03-25T16:41:51.349Z,55.36
2023-03-25T16:43:18.705Z,55.60
2023-03-25T16:44:42.762Z,56.12
2023-03-25T16:46:07.110Z,55.99
2023-03-25T16:47:33.517Z,55.90
2023-03-25T16:48:57.501Z,56.01
2023-03-25T16:50:21.644Z,56.09
2023-03-25T16:51:45.236Z,56.37
2023-03-25T16:53:08.083Z,56.44
2023-03-25T16:54:34.976Z,56.39
2023-03-25T16:56:03.020Z,56.59
2023-03-25T16:57:27.629Z,56.50
2023-03-25T16:58:58.219Z,56.59
2023-03-25T17:00:25.741Z,56.70
2023-03-25T17:01:54.170Z,56.67
2023-03-25T17:03:20.220Z,56.64
2023-03-25T17:04:43.546Z,56.71
2023-03-25T17:06:12.920Z,56.79
2023-03-25T17:07:35.319Z,56.81
2023-03-25T17:08:59.295Z,57.00
2023-03-25T17:10:24.534Z,56.92
2023-03-25T17:11:48.669Z,56.82
2023-03-25T17:13:12.244Z,56.97
2023-03-25T17:14:38.225Z,56.96
2023-03-25T17:16:02.421Z,57.14
2023-03-25T17:18:03.674Z,57.11
2023-03-25T17:19:28.947Z,56.83
2023-03-25T17:20:52.084Z,57.12
2023-03-25T17:22:18.117Z,57.17
2023-03-25T17:23:46.478Z,57.37
2023-03-25T17:25:26.478Z,57.28
2023-03-25T17:26:57.581Z,57.36
2023-03-25T17:28:28.948Z,57.49
2023-03-25T17:29:52.467Z,57.49
2023-03-25T17:31:29.808Z,56.96
2023-03-25T17:32:51.891Z,57.05
2023-03-25T17:34:16.053Z,56.88
2023-03-25T17:35:39.496Z,57.09
2023-03-25T17:37:04.101Z,56.88
2023-03-25T17:38:27.880Z,56.86
2023-03-25T17:39:50.363Z,57.08
2023-03-25T17:41:14.315Z,57.08
2023-03-25T17:42:38.145Z,57.05
2023-03-25T17:44:01.654Z,57.05
2023-03-25T17:45:25.984Z,57.05
2023-03-25T17:46:55.490Z,57.20
2023-03-25T17:48:18.857Z,57.14
2023-03-25T17:49:40.511Z,57.37
2023-03-25T17:51:04.366Z,57.43
2023-03-25T17:52:30.716Z,57.16
2023-03-25T17:54:04.769Z,57.31
2023-03-25T17:55:26.386Z,56.97
2023-03-25T17:56:50.492Z,57.30
2023-03-25T17:58:14.450Z,57.27
2023-03-25T17:59:37.123Z,57.50
2023-03-25T18:01:01.535Z,57.53
2023-03-25T18:02:25.616Z,57.57
2023-03-25T18:03:47.984Z,57.64
2023-03-25T18:05:12.430Z,57.64
2023-03-25T18:06:34.758Z,57.76
2023-03-25T18:07:58.728Z,57.79
2023-03-25T18:09:29.129Z,57.67
2023-03-25T18:11:01.305Z,58.03
2023-03-25T18:12:28.867Z,57.83
2023-03-25T18:13:58.633Z,57.86
2023-03-25T18:15:21.205Z,58.06
2023-03-25T18:16:46.537Z,58.09
2023-03-25T18:18:21.192Z,58.06
2023-03-25T18:19:42.880Z,58.07
2023-03-25T18:21:05.657Z,57.97
2023-03-25T18:22:27.660Z,58.30
2023-03-25T18:23:53.699Z,58.21
2023-03-25T18:25:16.491Z,58.24
2023-03-25T18:26:38.829Z,58.39
2023-03-25T18:28:01.625Z,58.46
2023-03-25T18:29:26.490Z,58.56
2023-03-25T18:30:52.689Z,58.47
2023-03-25T18:32:15.570Z,58.80
2023-03-25T18:33:39.842Z,58.68
2023-03-25T18:35:02.209Z,58.70
2023-03-25T18:36:24.744Z,58.75
2023-03-25T18:37:49.230Z,58.72
2023-03-25T18:39:18.040Z,58.83
2023-03-25T18:41:05.325Z,58.89
2023-03-25T18:42:27.813Z,58.75
2023-03-25T18:43:49.951Z,58.52
2023-03-25T18:45:15.207Z,58.42
2023-03-25T18:46:37.992Z,58.26
2023-03-25T18:48:02.976Z,58.10
2023-03-25T18:49:39.039Z,58.16
2023-03-25T18:51:01.973Z,57.99
2023-03-25T18:52:24.628Z,57.96
2023-03-25T18:53:48.987Z,57.49
2023-03-25T18:55:13.516Z,57.77
2023-03-25T18:56:37.800Z,57.58
2023-03-25T18:58:00.680Z,57.52
2023-03-25T18:59:24.072Z,57.50